Ye Chi — VRFV6 — position and weather

sailwx.info

Track history (hours):
 
Tides and Currents Weather Stations Pressure Air Temp Water Temp Dewpoint Dewpoint Depression Visibility Wind Speed Wind Dir Waves Ship Positions

Ye Chi

Last reported at 2016-Jul-23 13:22 UTC. Time now 2016-Jul-23 15:07 UTC.
Position N 01°18' E 103°43'.

Length 187 m; draft 8.5 m.

Type: Ship (hazmat cat D). MMSI: 477621300.

Date/timePositionNaut miles runAvg speedWind from/ knotsBaromVisibWave heightAir tempDewpointWater temp
2016-Jul-23 13:22N 01°18' E 103°43'0 0.0
2016-Jul-22 23:04N 01°18' E 103°43'2 3.2
2016-Jul-22 22:33N 01°17' E 103°45'5 4.0
2016-Jul-22 21:16N 01°13' E 103°49'0 0.1
2016-Jul-22 20:28N 01°13' E 103°49'0 0.0
2016-Jul-22 19:10N 01°13' E 103°49'0 0.1
2016-Jul-22 18:22N 01°13' E 103°49'0 0.0
2016-Jul-22 17:31N 01°13' E 103°49'0 0.1
2016-Jul-22 16:28N 01°13' E 103°49'0 0.1
2016-Jul-22 15:28N 01°13' E 103°48'0 0.0
2016-Jul-22 14:31N 01°13' E 103°48'0 0.0
2016-Jul-22 13:28N 01°13' E 103°48'0 0.1
2016-Jul-22 12:31N 01°13' E 103°49'0 0.0
2016-Jul-22 11:31N 01°13' E 103°49'0 0.0
2016-Jul-22 10:31N 01°13' E 103°49'0 0.0
2016-Jul-22 09:31N 01°13' E 103°49'0 0.0
2016-Jul-22 08:28N 01°13' E 103°49'0 0.0
2016-Jul-22 07:28N 01°13' E 103°49'0 0.0
2016-Jul-22 04:16N 01°13' E 103°49'0 0.0
2016-Jul-22 03:28N 01°13' E 103°49'0 0.0
2016-Jul-22 02:28N 01°13' E 103°49'0 0.1
2016-Jul-22 01:28N 01°13' E 103°49'0 0.0
2016-Jul-22 00:33N 01°13' E 103°49'0 0.0
2016-Jul-21 23:33N 01°13' E 103°49'0 0.0
2016-Jul-21 22:33N 01°13' E 103°49'0 0.1
2016-Jul-21 21:33N 01°13' E 103°49'0 0.1
2016-Jul-21 20:33N 01°13' E 103°49'0 0.0
2016-Jul-21 19:33N 01°13' E 103°49'0 0.0
2016-Jul-21 18:33N 01°13' E 103°49'3 3.0
2016-Jul-21 17:33N 01°15' E 103°46'5 5.1
2016-Jul-21 16:33N 01°16' E 103°41'0 0.0
2016-Jul-20 15:21N 01°16' E 103°41'2 2.9
2016-Jul-20 14:33N 01°13' E 103°42'3 0.6
2016-Jul-20 09:08N 01°10' E 103°42'0 0.0
2016-Jul-20 03:11N 01°10' E 103°43'0 0.1
2016-Jul-20 02:29N 01°10' E 103°43'0 0.0
2016-Jul-19 11:11N 01°10' E 103°42'0 0.1
2016-Jul-19 10:23N 01°10' E 103°42'0 0.0
2016-Jul-19 03:20N 01°10' E 103°43'0 0.0
2016-Jul-18 12:29N 01°10' E 103°43'0 0.1
2016-Jul-18 10:19N 01°10' E 103°42'0 0.0
2016-Jul-18 09:33N 01°10' E 103°42'0 0.1
2016-Jul-18 08:25N 01°10' E 103°42'0 0.2
2016-Jul-18 07:33N 01°10' E 103°42'0 0.0
2016-Jul-18 05:28N 01°10' E 103°43'0 0.0
2016-Jul-17 23:23N 01°10' E 103°43'0 0.0
2016-Jul-17 22:32N 01°10' E 103°43'0 0.0
2016-Jul-17 21:22N 01°10' E 103°43'0 0.0
2016-Jul-17 20:33N 01°10' E 103°43'0 0.0
2016-Jul-17 18:18N 01°10' E 103°43'1 0.5
2016-Jul-17 16:31N 01°10' E 103°42'65 9.0
2016-Jul-17 09:19N 01°40' E 102°44'1212.8
2016-Jul-17 08:21N 01°45' E 102°33'1112.3
2016-Jul-17 07:29N 01°50' E 102°23'  
Track history (hours):
 
Tides and Currents Weather Stations Pressure Air Temp Water Temp Dewpoint Dewpoint Depression Visibility Wind Speed Wind Dir Waves Ship Positions

Ye Chi

Last reported at 2016-Jul-23 13:22 UTC. Time now 2016-Jul-23 15:07 UTC.
Position N 01°18' E 103°43'.

Length 187 m; draft 8.5 m.

Type: Ship (hazmat cat D). MMSI: 477621300.

Date/timePositionNaut miles runAvg speedWind from/ knotsBaromVisibWave heightAir tempDewpointWater temp
2016-Jul-23 13:22N 01°18' E 103°43'0 0.0
2016-Jul-22 23:04N 01°18' E 103°43'2 3.2
2016-Jul-22 22:33N 01°17' E 103°45'5 4.0
2016-Jul-22 21:16N 01°13' E 103°49'0 0.1
2016-Jul-22 20:28N 01°13' E 103°49'0 0.0
2016-Jul-22 19:10N 01°13' E 103°49'0 0.1
2016-Jul-22 18:22N 01°13' E 103°49'0 0.0
2016-Jul-22 17:31N 01°13' E 103°49'0 0.1
2016-Jul-22 16:28N 01°13' E 103°49'0 0.1
2016-Jul-22 15:28N 01°13' E 103°48'0 0.0
2016-Jul-22 14:31N 01°13' E 103°48'0 0.0
2016-Jul-22 13:28N 01°13' E 103°48'0 0.1
2016-Jul-22 12:31N 01°13' E 103°49'0 0.0
2016-Jul-22 11:31N 01°13' E 103°49'0 0.0
2016-Jul-22 10:31N 01°13' E 103°49'0 0.0
2016-Jul-22 09:31N 01°13' E 103°49'0 0.0
2016-Jul-22 08:28N 01°13' E 103°49'0 0.0
2016-Jul-22 07:28N 01°13' E 103°49'0 0.0
2016-Jul-22 04:16N 01°13' E 103°49'0 0.0
2016-Jul-22 03:28N 01°13' E 103°49'0 0.0
2016-Jul-22 02:28N 01°13' E 103°49'0 0.1
2016-Jul-22 01:28N 01°13' E 103°49'0 0.0
2016-Jul-22 00:33N 01°13' E 103°49'0 0.0
2016-Jul-21 23:33N 01°13' E 103°49'0 0.0
2016-Jul-21 22:33N 01°13' E 103°49'0 0.1
2016-Jul-21 21:33N 01°13' E 103°49'0 0.1
2016-Jul-21 20:33N 01°13' E 103°49'0 0.0
2016-Jul-21 19:33N 01°13' E 103°49'0 0.0
2016-Jul-21 18:33N 01°13' E 103°49'3 3.0
2016-Jul-21 17:33N 01°15' E 103°46'5 5.1
2016-Jul-21 16:33N 01°16' E 103°41'0 0.0
2016-Jul-20 15:21N 01°16' E 103°41'2 2.9
2016-Jul-20 14:33N 01°13' E 103°42'3 0.6
2016-Jul-20 09:08N 01°10' E 103°42'0 0.0
2016-Jul-20 03:11N 01°10' E 103°43'0 0.1
2016-Jul-20 02:29N 01°10' E 103°43'0 0.0
2016-Jul-19 11:11N 01°10' E 103°42'0 0.1
2016-Jul-19 10:23N 01°10' E 103°42'0 0.0
2016-Jul-19 03:20N 01°10' E 103°43'0 0.0
2016-Jul-18 12:29N 01°10' E 103°43'0 0.1
2016-Jul-18 10:19N 01°10' E 103°42'0 0.0
2016-Jul-18 09:33N 01°10' E 103°42'0 0.1
2016-Jul-18 08:25N 01°10' E 103°42'0 0.2
2016-Jul-18 07:33N 01°10' E 103°42'0 0.0
2016-Jul-18 05:28N 01°10' E 103°43'0 0.0
2016-Jul-17 23:23N 01°10' E 103°43'0 0.0
2016-Jul-17 22:32N 01°10' E 103°43'0 0.0
2016-Jul-17 21:22N 01°10' E 103°43'0 0.0
2016-Jul-17 20:33N 01°10' E 103°43'0 0.0
2016-Jul-17 18:18N 01°10' E 103°43'1 0.5
2016-Jul-17 16:31N 01°10' E 103°42'65 9.0
2016-Jul-17 09:19N 01°40' E 102°44'1212.8
2016-Jul-17 08:21N 01°45' E 102°33'1112.3
2016-Jul-17 07:29N 01°50' E 102°23'  

Dump ship's entire track history